createdAt,value
2018-11-23T00:00:30.504Z,28.83
2018-11-23T00:02:59.703Z,28.30
2018-11-23T00:05:28.199Z,28.53
2018-11-23T00:07:57.575Z,27.77
2018-11-23T00:10:27.404Z,31.30
2018-11-23T00:12:56.282Z,29.37
2018-11-23T00:15:25.295Z,28.03
2018-11-23T00:17:53.823Z,28.00
2018-11-23T00:20:24.720Z,28.27
2018-11-23T00:22:53.254Z,29.37
2018-11-23T00:25:23.066Z,27.87
2018-11-23T00:27:51.995Z,28.93
2018-11-23T00:30:22.751Z,28.93
2018-11-23T00:32:51.674Z,25.47
2018-11-23T00:35:23.475Z,28.37
2018-11-23T00:37:52.716Z,28.13
2018-11-23T00:40:22.386Z,31.57
2018-11-23T00:42:51.848Z,31.83
2018-11-23T00:45:20.781Z,29.03
2018-11-23T00:47:49.987Z,31.07
2018-11-23T00:50:19.608Z,29.13
2018-11-23T00:52:48.405Z,28.30
2018-11-23T00:55:18.460Z,34.17
2018-11-23T00:57:46.959Z,32.57
2018-11-23T01:00:22.340Z,29.77
2018-11-23T01:02:50.987Z,27.47
2018-11-23T01:05:19.753Z,27.70
2018-11-23T01:07:49.682Z,26.37
2018-11-23T01:10:20.007Z,29.87
2018-11-23T01:12:49.741Z,28.60
2018-11-23T01:15:18.295Z,31.33
2018-11-23T01:17:46.845Z,28.47
2018-11-23T01:20:16.983Z,29.50
2018-11-23T01:22:45.707Z,27.90
2018-11-23T01:25:15.254Z,25.97
2018-11-23T01:27:44.646Z,28.97
2018-11-23T01:30:17.582Z,26.57
2018-11-23T01:32:46.221Z,26.33
2018-11-23T01:35:14.812Z,26.30
2018-11-23T01:37:43.525Z,30.93
2018-11-23T01:40:14.343Z,27.37
2018-11-23T01:42:42.849Z,26.27
2018-11-23T01:45:12.023Z,29.40
2018-11-23T01:47:40.571Z,27.30
2018-11-23T01:50:14.323Z,26.90
2018-11-23T01:52:43.571Z,26.17
2018-11-23T01:55:13.038Z,30.23
2018-11-23T01:57:41.949Z,28.83
2018-11-23T02:00:15.419Z,29.00
2018-11-23T02:02:44.182Z,26.87
2018-11-23T02:05:12.635Z,27.97
2018-11-23T02:07:41.109Z,28.17
2018-11-23T02:10:10.801Z,26.50
2018-11-23T02:12:39.246Z,25.67
2018-11-23T02:15:09.727Z,26.80
2018-11-23T02:17:38.159Z,29.43
2018-11-23T02:20:08.683Z,29.40
2018-11-23T02:22:37.113Z,30.00
2018-11-23T02:25:05.638Z,27.17
2018-11-23T02:27:34.083Z,27.10
2018-11-23T02:30:02.596Z,27.80
2018-11-23T02:32:31.034Z,29.00
2018-11-23T02:34:59.556Z,32.77
2018-11-23T02:37:27.976Z,28.00
2018-11-23T02:39:56.410Z,32.23
2018-11-23T02:42:24.815Z,31.37
2018-11-23T02:44:53.250Z,30.60
2018-11-23T02:47:22.036Z,30.17
2018-11-23T02:49:50.459Z,30.23
2018-11-23T02:52:18.860Z,28.40
2018-11-23T02:54:47.271Z,27.67
2018-11-23T02:57:15.695Z,28.83
2018-11-23T02:59:44.129Z,29.53
2018-11-23T03:02:12.534Z,30.57
2018-11-23T03:04:42.539Z,27.50
2018-11-23T03:07:11.007Z,31.77
2018-11-23T03:09:39.442Z,29.63
2018-11-23T03:12:07.856Z,31.30
2018-11-23T03:14:36.281Z,29.37
2018-11-23T03:17:04.750Z,30.90
2018-11-23T03:19:33.182Z,33.57
2018-11-23T03:22:01.591Z,31.80
2018-11-23T03:24:30.072Z,30.67
2018-11-23T03:26:58.482Z,29.50
2018-11-23T03:29:26.961Z,30.63
2018-11-23T03:31:55.389Z,30.43
2018-11-23T03:34:23.900Z,32.63
2018-11-23T03:36:52.443Z,33.10
2018-11-23T03:39:20.962Z,31.83
2018-11-23T03:41:49.443Z,31.00
2018-11-23T03:44:17.967Z,30.17
2018-11-23T03:46:46.426Z,31.47
2018-11-23T03:49:14.991Z,31.13
2018-11-23T03:51:43.523Z,32.60
2018-11-23T03:54:12.021Z,30.17
2018-11-23T03:56:40.474Z,29.60
2018-11-23T03:59:08.964Z,30.47
2018-11-23T04:01:37.430Z,32.43
2018-11-23T04:04:06.786Z,28.83
2018-11-23T04:06:35.394Z,35.43
2018-11-23T04:09:04.707Z,32.23
2018-11-23T04:11:33.407Z,28.17
2018-11-23T04:14:01.894Z,29.47
2018-11-23T04:16:30.402Z,32.07
2018-11-23T04:18:58.921Z,28.07
2018-11-23T04:21:27.479Z,32.43
2018-11-23T04:23:55.951Z,30.23
2018-11-23T04:26:24.873Z,31.53
2018-11-23T04:28:52.938Z,32.23
2018-11-23T04:31:21.719Z,31.77
2018-11-23T04:33:50.278Z,36.27
2018-11-23T04:36:18.775Z,33.33
2018-11-23T04:38:47.298Z,29.93
2018-11-23T04:41:15.859Z,35.70
2018-11-23T04:43:44.362Z,34.13
2018-11-23T04:46:12.871Z,36.20
2018-11-23T04:48:41.322Z,34.57
2018-11-23T04:51:09.918Z,35.77
2018-11-23T04:53:38.646Z,36.77
2018-11-23T04:56:07.139Z,37.27
2018-11-23T04:58:36.702Z,33.13
2018-11-23T05:01:05.274Z,34.20
2018-11-23T05:03:33.772Z,36.23
2018-11-23T05:06:02.290Z,36.33
2018-11-23T05:08:30.803Z,32.67
2018-11-23T05:10:59.307Z,31.33
2018-11-23T05:13:27.799Z,38.93
2018-11-23T05:15:56.286Z,34.50
2018-11-23T05:18:24.727Z,31.37
2018-11-23T05:20:53.212Z,37.40
2018-11-23T05:23:22.054Z,33.97
2018-11-23T05:25:50.620Z,34.63
2018-11-23T05:28:19.090Z,33.67
2018-11-23T05:30:47.570Z,38.97
2018-11-23T05:33:16.027Z,38.57
2018-11-23T05:35:44.516Z,37.57
2018-11-23T05:38:13.026Z,35.87
2018-11-23T05:40:41.498Z,34.97
2018-11-23T05:43:09.975Z,38.37
2018-11-23T05:45:38.447Z,34.73
2018-11-23T05:48:06.895Z,35.90
2018-11-23T05:50:35.450Z,37.37
2018-11-23T05:53:03.942Z,38.43
2018-11-23T05:55:32.411Z,36.73
2018-11-23T05:58:00.878Z,37.83
2018-11-23T06:00:30.705Z,38.70
2018-11-23T06:02:59.503Z,37.93
2018-11-23T06:05:27.979Z,35.97
2018-11-23T06:07:56.430Z,38.77
2018-11-23T06:10:24.948Z,35.30
2018-11-23T06:12:53.441Z,40.87
2018-11-23T06:15:23.163Z,35.73
2018-11-23T06:17:51.875Z,39.03
2018-11-23T06:20:22.329Z,36.00
2018-11-23T06:22:51.578Z,40.53
2018-11-23T06:25:30.058Z,42.03
2018-11-23T06:27:59.010Z,41.80
2018-11-23T06:30:27.806Z,44.70
2018-11-23T06:33:07.528Z,41.43
2018-11-23T06:35:35.971Z,41.47
2018-11-23T06:38:04.627Z,43.43
2018-11-23T06:40:33.120Z,43.47
2018-11-23T06:43:01.576Z,46.47
2018-11-23T06:45:32.306Z,49.13
2018-11-23T06:48:00.776Z,44.50
2018-11-23T06:50:29.527Z,46.67
2018-11-23T06:52:57.983Z,43.97
2018-11-23T06:55:26.410Z,40.70
2018-11-23T06:57:54.884Z,40.60
2018-11-23T07:00:23.342Z,40.17
2018-11-23T07:02:51.835Z,42.63
2018-11-23T07:05:20.287Z,40.53
2018-11-23T07:07:48.802Z,39.57
2018-11-23T07:10:17.723Z,40.87
2018-11-23T07:12:46.179Z,40.20
2018-11-23T07:15:14.624Z,44.40
2018-11-23T07:17:43.227Z,39.60
2018-11-23T07:20:13.423Z,38.73
2018-11-23T07:22:42.367Z,39.87
2018-11-23T07:25:12.323Z,46.73
2018-11-23T07:27:41.196Z,42.77
2018-11-23T07:30:20.298Z,44.23
2018-11-23T07:32:48.854Z,41.87
2018-11-23T07:35:17.339Z,47.77
2018-11-23T07:37:46.241Z,45.00
2018-11-23T07:40:27.438Z,43.20
2018-11-23T07:42:56.215Z,47.00
2018-11-23T07:45:24.953Z,45.07
2018-11-23T07:47:54.205Z,48.20
2018-11-23T07:50:22.674Z,47.73
2018-11-23T07:52:51.158Z,43.07
2018-11-23T07:55:19.628Z,42.63
2018-11-23T07:57:48.113Z,43.83
2018-11-23T08:00:20.367Z,45.60
2018-11-23T08:02:49.188Z,48.90
2018-11-23T08:05:18.398Z,48.43
2018-11-23T08:07:47.223Z,46.10
2018-11-23T08:10:15.891Z,44.53
2018-11-23T08:12:46.691Z,47.03
2018-11-23T08:15:17.966Z,41.17
2018-11-23T08:17:46.450Z,42.17
2018-11-23T08:20:16.026Z,38.63
2018-11-23T08:22:44.708Z,43.07
2018-11-23T08:25:14.927Z,43.97
2018-11-23T08:27:44.212Z,42.23
2018-11-23T08:30:18.282Z,42.87
2018-11-23T08:32:46.859Z,39.87
2018-11-23T08:35:15.571Z,43.40
2018-11-23T08:37:44.275Z,42.57
2018-11-23T08:40:20.675Z,40.83
2018-11-23T08:42:49.919Z,45.43
2018-11-23T08:45:20.138Z,43.40
2018-11-23T08:47:48.774Z,44.67
2018-11-23T08:50:23.224Z,42.43
2018-11-23T08:52:51.719Z,44.27
2018-11-23T08:55:20.594Z,42.80
2018-11-23T08:57:49.988Z,42.30
2018-11-23T09:00:24.147Z,40.50
2018-11-23T09:02:54.200Z,39.23
2018-11-23T09:05:22.696Z,41.20
2018-11-23T09:07:53.626Z,37.97
2018-11-23T09:10:23.874Z,37.90
2018-11-23T09:12:54.920Z,41.97
2018-11-23T09:15:23.410Z,44.00
2018-11-23T09:17:52.286Z,39.47
2018-11-23T09:20:20.874Z,42.73
2018-11-23T09:22:49.379Z,38.93
2018-11-23T09:26:42.270Z,43.23
2018-11-23T09:29:11.574Z,37.07
2018-11-23T09:31:40.029Z,40.17
2018-11-23T09:34:08.548Z,37.60
2018-11-23T09:36:37.001Z,37.57
2018-11-23T09:39:07.215Z,41.93
2018-11-23T09:41:35.659Z,40.23
2018-11-23T09:44:04.198Z,37.37
2018-11-23T09:46:32.648Z,39.47
2018-11-23T09:49:01.143Z,40.33
2018-11-23T09:51:29.594Z,36.57
2018-11-23T09:53:58.074Z,42.43
2018-11-23T09:56:26.528Z,37.83
2018-11-23T10:00:20.700Z,37.33
2018-11-23T10:02:50.003Z,38.20
2018-11-23T10:05:19.204Z,37.13
2018-11-23T10:07:53.911Z,40.00
2018-11-23T10:10:22.955Z,36.57
2018-11-23T10:12:51.759Z,34.90
2018-11-23T10:15:20.928Z,36.43
2018-11-23T10:17:49.378Z,38.93
2018-11-23T10:20:21.277Z,36.90
2018-11-23T10:22:49.833Z,39.80
2018-11-23T10:25:23.503Z,35.23
2018-11-23T10:27:52.619Z,37.30
2018-11-23T10:30:25.591Z,34.43
2018-11-23T10:32:55.439Z,35.63
2018-11-23T10:35:24.037Z,38.73
2018-11-23T10:37:54.319Z,36.03
2018-11-23T10:40:24.047Z,36.10
2018-11-23T10:42:52.571Z,32.80
2018-11-23T10:45:23.085Z,34.73
2018-11-23T10:47:52.143Z,39.10
2018-11-23T10:50:22.008Z,33.80
2018-11-23T10:52:51.327Z,33.80
2018-11-23T10:55:21.659Z,32.77
2018-11-23T10:57:50.403Z,37.73
2018-11-23T11:00:24.567Z,33.90
2018-11-23T11:02:59.206Z,30.50
2018-11-23T11:06:05.926Z,35.80
2018-11-23T11:08:34.379Z,33.57
2018-11-23T11:11:03.338Z,37.23
2018-11-23T11:13:31.998Z,36.80
2018-11-23T11:16:00.649Z,32.83
2018-11-23T11:18:29.062Z,38.27
2018-11-23T11:20:57.540Z,36.13
2018-11-23T11:23:25.996Z,31.67
2018-11-23T11:25:56.363Z,36.43
2018-11-23T11:28:24.810Z,34.60
2018-11-23T11:30:53.480Z,32.40
2018-11-23T11:33:21.939Z,32.50
2018-11-23T11:35:50.499Z,33.80
2018-11-23T11:38:18.961Z,34.23
2018-11-23T11:40:47.442Z,31.33
2018-11-23T11:43:16.087Z,32.47
2018-11-23T11:45:44.708Z,33.53
2018-11-23T11:48:13.154Z,30.20
2018-11-23T11:50:41.680Z,31.20
2018-11-23T11:53:10.158Z,32.47
2018-11-23T11:55:38.717Z,35.63
2018-11-23T11:58:07.228Z,31.97
2018-11-23T12:00:35.699Z,33.47
2018-11-23T12:03:04.151Z,30.47
2018-11-23T12:05:32.622Z,29.20
2018-11-23T12:08:01.099Z,31.77
2018-11-23T12:10:29.580Z,30.83
2018-11-23T12:12:58.051Z,31.03
2018-11-23T12:15:26.532Z,31.03
2018-11-23T12:17:54.983Z,34.67
2018-11-23T12:20:24.535Z,37.20
2018-11-23T12:22:53.394Z,30.90
2018-11-23T12:25:22.519Z,28.50
2018-11-23T12:27:50.986Z,26.67
2018-11-23T12:30:20.748Z,28.50
2018-11-23T12:32:50.427Z,36.43
2018-11-23T12:35:19.899Z,32.60
2018-11-23T12:37:48.408Z,31.27
2018-11-23T12:40:17.991Z,31.20
2018-11-23T12:42:47.121Z,32.47
2018-11-23T12:45:17.057Z,26.83
2018-11-23T12:47:45.607Z,26.83
2018-11-23T12:50:18.182Z,29.37
2018-11-23T12:52:46.858Z,29.03
2018-11-23T12:55:16.127Z,28.87
2018-11-23T12:57:44.710Z,27.53
2018-11-23T13:00:19.505Z,31.90
2018-11-23T13:02:49.796Z,28.50
2018-11-23T13:05:19.627Z,30.30
2018-11-23T13:07:50.347Z,26.77
2018-11-23T13:10:18.847Z,28.90
2018-11-23T13:12:50.831Z,26.67
2018-11-23T13:15:15.917Z,26.23
2018-11-23T13:17:44.487Z,26.87
2018-11-23T13:20:14.319Z,29.60
2018-11-23T13:22:42.955Z,28.43
2018-11-23T13:25:13.403Z,30.00
2018-11-23T13:27:41.886Z,28.07
2018-11-23T13:30:15.021Z,28.50
2018-11-23T13:32:43.807Z,27.90
2018-11-23T13:35:14.714Z,28.77
2018-11-23T13:37:43.279Z,27.30
2018-11-23T13:40:13.893Z,30.03
2018-11-23T13:42:42.992Z,28.23
2018-11-23T13:45:13.339Z,28.13
2018-11-23T13:47:41.934Z,29.17
2018-11-23T13:50:13.072Z,29.47
2018-11-23T13:52:42.370Z,32.93
2018-11-23T13:55:11.166Z,29.77
2018-11-23T13:57:39.702Z,30.83
2018-11-23T14:00:13.474Z,28.63
2018-11-23T14:02:42.008Z,29.63
2018-11-23T14:05:12.224Z,28.43
2018-11-23T14:07:41.098Z,27.83
2018-11-23T14:10:11.348Z,28.37
2018-11-23T14:12:39.997Z,28.47
2018-11-23T14:15:13.084Z,30.73
2018-11-23T14:17:42.091Z,32.70
2018-11-23T14:20:12.289Z,30.63
2018-11-23T14:22:40.825Z,30.83
2018-11-23T14:25:11.386Z,29.97
2018-11-23T14:27:39.947Z,30.20
2018-11-23T14:30:13.707Z,35.13
2018-11-23T14:32:42.608Z,29.63
2018-11-23T14:35:13.031Z,30.67
2018-11-23T14:37:43.055Z,32.13
2018-11-23T14:40:12.646Z,30.30
2018-11-23T14:42:42.307Z,33.40
2018-11-23T14:45:14.506Z,33.43
2018-11-23T14:47:43.244Z,32.67
2018-11-23T14:50:15.542Z,33.63
2018-11-23T14:52:45.269Z,32.67
2018-11-23T14:55:14.156Z,32.73
2018-11-23T14:57:43.194Z,32.70
2018-11-23T15:00:14.387Z,33.23
2018-11-23T15:02:44.198Z,33.70
2018-11-23T15:05:12.688Z,32.83
2018-11-23T15:07:41.226Z,31.57
2018-11-23T15:10:12.736Z,31.70
2018-11-23T15:12:41.196Z,33.03
2018-11-23T15:15:13.834Z,36.73
2018-11-23T15:17:43.626Z,31.93
2018-11-23T15:20:17.919Z,33.13
2018-11-23T15:22:47.660Z,36.63
2018-11-23T15:25:17.082Z,33.00
2018-11-23T15:27:45.831Z,32.70
2018-11-23T15:30:18.512Z,36.17
2018-11-23T15:32:46.995Z,34.23
2018-11-23T15:35:15.882Z,32.23
2018-11-23T15:37:44.398Z,34.80
2018-11-23T15:40:16.716Z,35.10
2018-11-23T15:42:45.519Z,35.53
2018-11-23T15:45:17.731Z,32.20
2018-11-23T15:47:46.173Z,39.17
2018-11-23T15:50:16.851Z,35.77
2018-11-23T15:52:46.163Z,34.23
2018-11-23T15:55:17.997Z,33.53
2018-11-23T15:57:47.256Z,33.23
2018-11-23T16:00:19.144Z,34.43
2018-11-23T16:02:47.895Z,35.27
2018-11-23T16:05:17.626Z,38.70
2018-11-23T16:07:46.233Z,36.00
2018-11-23T16:10:23.620Z,36.50
2018-11-23T16:12:53.234Z,38.40
2018-11-23T16:15:23.059Z,34.13
2018-11-23T16:17:52.041Z,39.17
2018-11-23T16:20:23.637Z,37.50
2018-11-23T16:22:53.419Z,36.03
2018-11-23T16:25:21.966Z,36.87
2018-11-23T16:27:51.993Z,40.87
2018-11-23T16:30:22.126Z,36.63
2018-11-23T16:32:52.020Z,37.80
2018-11-23T16:35:21.819Z,38.70
2018-11-23T16:37:51.082Z,38.03
2018-11-23T16:40:26.358Z,38.80
2018-11-23T16:42:55.583Z,38.93
2018-11-23T16:45:26.055Z,36.00
2018-11-23T16:47:55.311Z,39.17
2018-11-23T16:50:23.855Z,39.90
2018-11-23T16:52:52.595Z,40.37
2018-11-23T16:55:22.351Z,37.10
2018-11-23T16:57:53.410Z,39.63
2018-11-23T17:00:26.188Z,43.17
2018-11-23T17:02:55.554Z,37.47
2018-11-23T17:05:25.695Z,42.10
2018-11-23T17:07:54.195Z,39.13
2018-11-23T17:10:22.692Z,39.03
2018-11-23T17:12:51.167Z,34.80
2018-11-23T17:15:21.312Z,37.60
2018-11-23T17:17:49.810Z,36.77
2018-11-23T17:20:19.607Z,38.10
2018-11-23T17:22:50.205Z,37.10
2018-11-23T17:25:19.919Z,37.63
2018-11-23T17:27:49.088Z,41.70
2018-11-23T17:30:18.622Z,37.60
2018-11-23T17:32:47.756Z,39.00
2018-11-23T17:35:16.615Z,39.95
2018-11-23T17:37:45.111Z,37.53
2018-11-23T17:40:16.846Z,37.40
2018-11-23T17:42:45.331Z,36.60
2018-11-23T17:45:15.465Z,35.40
2018-11-23T17:47:43.967Z,34.87
2018-11-23T17:50:13.948Z,39.93
2018-11-23T17:52:42.656Z,39.33
2018-11-23T17:55:12.287Z,34.20
2018-11-23T17:57:41.359Z,37.13
2018-11-23T18:00:13.315Z,35.87
2018-11-23T18:02:42.079Z,40.47
2018-11-23T18:05:12.306Z,39.63
2018-11-23T18:07:40.789Z,36.47
2018-11-23T18:10:12.023Z,37.17
2018-11-23T18:12:40.524Z,40.47
2018-11-23T18:15:11.301Z,35.90
2018-11-23T18:17:39.798Z,38.67
2018-11-23T18:20:10.123Z,39.03
2018-11-23T18:22:39.031Z,39.67
2018-11-23T18:25:11.122Z,35.67
2018-11-23T18:27:39.689Z,36.53
2018-11-23T18:30:09.773Z,36.13
2018-11-23T18:32:38.299Z,42.10
2018-11-23T18:35:07.928Z,35.97
2018-11-23T18:37:36.443Z,34.73
2018-11-23T18:40:08.737Z,36.37
2018-11-23T18:42:43.591Z,38.37
2018-11-23T18:45:13.031Z,37.67
2018-11-23T18:47:42.455Z,34.63
2018-11-23T18:50:14.300Z,36.80
2018-11-23T18:52:42.837Z,32.73
2018-11-23T18:55:17.998Z,36.70
2018-11-23T18:57:40.656Z,33.03
2018-11-23T19:00:11.935Z,35.87
2018-11-23T19:02:40.551Z,36.00
2018-11-23T19:05:18.878Z,38.23
2018-11-23T19:07:47.397Z,33.43
2018-11-23T19:10:15.908Z,36.20
2018-11-23T19:12:44.411Z,34.63
2018-11-23T19:15:14.486Z,34.20
2018-11-23T19:17:43.942Z,35.33
2018-11-23T19:20:15.297Z,37.63
2018-11-23T19:22:45.520Z,39.40
2018-11-23T19:25:14.050Z,33.47
2018-11-23T19:27:42.531Z,37.70
2018-11-23T19:30:13.290Z,38.30
2018-11-23T19:32:41.769Z,35.37
2018-11-23T19:35:10.651Z,35.50
2018-11-23T19:37:39.102Z,39.03
2018-11-23T19:40:10.393Z,40.47
2018-11-23T19:42:38.977Z,37.57
2018-11-23T19:45:12.435Z,38.57
2018-11-23T19:47:40.910Z,39.07
2018-11-23T19:50:11.918Z,36.23
2018-11-23T19:52:40.681Z,37.57
2018-11-23T19:55:10.525Z,39.23
2018-11-23T19:57:38.999Z,36.13
2018-11-23T20:00:12.759Z,36.60
2018-11-23T20:02:41.216Z,40.00
2018-11-23T20:05:09.778Z,40.53
2018-11-23T20:07:38.279Z,42.30
2018-11-23T20:10:10.522Z,41.17
2018-11-23T20:12:38.979Z,38.77
2018-11-23T20:15:10.034Z,41.37
2018-11-23T20:17:41.505Z,34.83
2018-11-23T20:20:09.134Z,35.87
2018-11-23T20:22:37.599Z,37.33
2018-11-23T20:25:08.477Z,35.50
2018-11-23T20:27:36.967Z,42.23
2018-11-23T20:30:15.600Z,40.43
2018-11-23T20:32:44.112Z,41.07
2018-11-23T20:35:14.883Z,38.27
2018-11-23T20:37:43.376Z,37.90
2018-11-23T20:40:14.355Z,38.23
2018-11-23T20:42:43.259Z,37.97
2018-11-23T20:45:12.398Z,35.93
2018-11-23T20:47:40.946Z,37.93
2018-11-23T20:50:13.719Z,35.47
2018-11-23T20:52:42.209Z,34.60
2018-11-23T20:55:13.186Z,33.57
2018-11-23T20:57:41.682Z,36.63
2018-11-23T21:00:12.703Z,35.33
2018-11-23T21:02:41.554Z,37.50
2018-11-23T21:05:11.202Z,37.70
2018-11-23T21:07:40.081Z,39.80
2018-11-23T21:10:10.349Z,37.27
2018-11-23T21:12:38.843Z,42.47
2018-11-23T21:15:13.561Z,41.27
2018-11-23T21:17:42.046Z,43.37
2018-11-23T21:20:10.523Z,43.77
2018-11-23T21:22:39.039Z,41.93
2018-11-23T21:25:09.722Z,39.43
2018-11-23T21:27:38.254Z,41.63
2018-11-23T21:30:12.881Z,37.47
2018-11-23T21:32:41.416Z,35.60
2018-11-23T21:35:10.997Z,43.43
2018-11-23T21:37:39.503Z,44.57
2018-11-23T21:40:10.524Z,41.43
2018-11-23T21:42:39.114Z,43.97
2018-11-23T21:45:12.013Z,40.03
2018-11-23T21:47:40.526Z,41.97
2018-11-23T21:50:11.571Z,46.17
2018-11-23T21:52:40.088Z,39.53
2018-11-23T21:55:10.368Z,42.40
2018-11-23T21:57:38.919Z,43.87
2018-11-23T22:00:09.271Z,48.27
2018-11-23T22:02:37.872Z,46.67
2018-11-23T22:05:07.010Z,42.63
2018-11-23T22:07:35.616Z,40.57
2018-11-23T22:10:06.705Z,45.30
2018-11-23T22:12:35.230Z,47.70
2018-11-23T22:15:03.903Z,50.57
2018-11-23T22:17:32.425Z,51.13
2018-11-23T22:20:00.996Z,50.47
2018-11-23T22:22:29.540Z,50.00
2018-11-23T22:24:58.035Z,55.67
2018-11-23T22:27:26.713Z,60.43
2018-11-23T22:29:55.194Z,55.93
2018-11-23T22:32:23.856Z,51.53
2018-11-23T22:34:52.368Z,49.03
2018-11-23T22:37:21.044Z,54.93
2018-11-23T22:39:49.554Z,45.83
2018-11-23T22:42:18.083Z,48.63
2018-11-23T22:44:46.622Z,43.90
2018-11-23T22:47:15.172Z,45.00
2018-11-23T22:49:43.717Z,42.90
2018-11-23T22:52:12.219Z,46.50
2018-11-23T22:54:40.764Z,45.13
2018-11-23T22:57:11.756Z,47.33
2018-11-23T22:59:38.118Z,43.60
2018-11-23T23:02:06.740Z,49.07
2018-11-23T23:04:35.299Z,46.23
2018-11-23T23:07:03.803Z,45.77
2018-11-23T23:09:32.451Z,45.03
2018-11-23T23:12:00.939Z,48.10
2018-11-23T23:14:29.435Z,46.73
2018-11-23T23:16:57.916Z,49.77
2018-11-23T23:19:26.419Z,50.77
2018-11-23T23:21:54.903Z,48.83
2018-11-23T23:24:23.922Z,48.13
2018-11-23T23:26:52.428Z,45.23
2018-11-23T23:29:21.083Z,47.07
2018-11-23T23:31:49.612Z,49.30
2018-11-23T23:34:18.474Z,50.80
2018-11-23T23:36:46.951Z,49.83
2018-11-23T23:39:15.497Z,48.30
2018-11-23T23:41:44.008Z,49.33
2018-11-23T23:44:12.494Z,52.37
2018-11-23T23:46:40.991Z,47.93
2018-11-23T23:49:09.474Z,49.70
2018-11-23T23:51:38.607Z,50.63
2018-11-23T23:54:07.136Z,52.77
2018-11-23T23:56:36.564Z,54.13
2018-11-23T23:59:05.602Z,56.07
